sensor_id;sensor_type;location;lat;lon;timestamp;P1;durP1;ratioP1;P2;durP2;ratioP2
72105;SDS011;59975;47.646;18.318;2022-07-11T00:02:24;1.95;;;0.70;;
72105;SDS011;59975;47.646;18.318;2022-07-11T00:04:51;2.75;;;0.70;;
72105;SDS011;59975;47.646;18.318;2022-07-11T00:07:18;2.08;;;0.80;;
72105;SDS011;59975;47.646;18.318;2022-07-11T00:09:46;4.30;;;1.00;;
72105;SDS011;59975;47.646;18.318;2022-07-11T00:12:13;2.13;;;0.73;;
72105;SDS011;59975;47.646;18.318;2022-07-11T00:14:39;2.60;;;1.00;;
72105;SDS011;59975;47.646;18.318;2022-07-11T00:17:06;4.30;;;0.98;;
72105;SDS011;59975;47.646;18.318;2022-07-11T00:19:33;2.35;;;1.00;;
72105;SDS011;59975;47.646;18.318;2022-07-11T00:21:59;4.20;;;1.00;;
72105;SDS011;59975;47.646;18.318;2022-07-11T00:24:24;2.05;;;1.42;;
72105;SDS011;59975;47.646;18.318;2022-07-11T00:26:50;2.53;;;0.77;;
72105;SDS011;59975;47.646;18.318;2022-07-11T00:29:17;5.93;;;1.33;;
72105;SDS011;59975;47.646;18.318;2022-07-11T00:31:43;2.90;;;1.13;;
72105;SDS011;59975;47.646;18.318;2022-07-11T00:34:09;2.40;;;0.95;;
72105;SDS011;59975;47.646;18.318;2022-07-11T00:36:35;2.37;;;0.70;;
72105;SDS011;59975;47.646;18.318;2022-07-11T00:39:01;3.97;;;1.10;;
72105;SDS011;59975;47.646;18.318;2022-07-11T00:41:27;3.78;;;1.08;;
72105;SDS011;59975;47.646;18.318;2022-07-11T00:43:56;4.37;;;0.87;;
72105;SDS011;59975;47.646;18.318;2022-07-11T00:46:25;3.55;;;0.90;;
72105;SDS011;59975;47.646;18.318;2022-07-11T00:52:13;2.33;;;0.88;;
72105;SDS011;59975;47.646;18.318;2022-07-11T00:58:01;2.08;;;0.88;;
72105;SDS011;59975;47.646;18.318;2022-07-11T01:00:27;2.20;;;0.98;;
72105;SDS011;59975;47.646;18.318;2022-07-11T01:02:52;2.73;;;0.90;;
72105;SDS011;59975;47.646;18.318;2022-07-11T01:05:18;5.25;;;1.08;;
72105;SDS011;59975;47.646;18.318;2022-07-11T01:07:43;2.67;;;1.03;;
72105;SDS011;59975;47.646;18.318;2022-07-11T01:10:09;3.10;;;1.00;;
72105;SDS011;59975;47.646;18.318;2022-07-11T01:12:35;1.55;;;0.80;;
72105;SDS011;59975;47.646;18.318;2022-07-11T01:15:02;3.30;;;1.00;;
72105;SDS011;59975;47.646;18.318;2022-07-11T01:17:29;2.43;;;0.90;;
72105;SDS011;59975;47.646;18.318;2022-07-11T01:19:54;4.45;;;1.20;;
72105;SDS011;59975;47.646;18.318;2022-07-11T01:22:21;3.25;;;1.13;;
72105;SDS011;59975;47.646;18.318;2022-07-11T01:24:50;2.53;;;0.90;;
72105;SDS011;59975;47.646;18.318;2022-07-11T01:27:16;2.25;;;0.88;;
72105;SDS011;59975;47.646;18.318;2022-07-11T01:29:42;1.30;;;0.77;;
72105;SDS011;59975;47.646;18.318;2022-07-11T01:32:08;4.57;;;1.25;;
72105;SDS011;59975;47.646;18.318;2022-07-11T01:34:34;2.28;;;1.02;;
72105;SDS011;59975;47.646;18.318;2022-07-11T01:37:00;5.47;;;1.30;;
72105;SDS011;59975;47.646;18.318;2022-07-11T01:39:26;6.13;;;1.20;;
72105;SDS011;59975;47.646;18.318;2022-07-11T01:41:55;2.85;;;1.23;;
72105;SDS011;59975;47.646;18.318;2022-07-11T01:44:22;2.20;;;0.93;;
72105;SDS011;59975;47.646;18.318;2022-07-11T01:46:48;4.18;;;1.15;;
72105;SDS011;59975;47.646;18.318;2022-07-11T01:49:15;5.55;;;1.13;;
72105;SDS011;59975;47.646;18.318;2022-07-11T01:51:41;3.38;;;1.20;;
72105;SDS011;59975;47.646;18.318;2022-07-11T01:54:08;1.87;;;0.90;;
72105;SDS011;59975;47.646;18.318;2022-07-11T01:56:33;3.25;;;1.10;;
72105;SDS011;59975;47.646;18.318;2022-07-11T01:58:59;4.70;;;0.97;;
72105;SDS011;59975;47.646;18.318;2022-07-11T02:01:26;3.33;;;1.23;;
72105;SDS011;59975;47.646;18.318;2022-07-11T02:03:53;4.57;;;1.42;;
72105;SDS011;59975;47.646;18.318;2022-07-11T02:09:42;4.22;;;0.80;;
72105;SDS011;59975;47.646;18.318;2022-07-11T02:12:08;5.38;;;0.90;;
72105;SDS011;59975;47.646;18.318;2022-07-11T02:14:34;3.33;;;1.10;;
72105;SDS011;59975;47.646;18.318;2022-07-11T02:17:00;4.35;;;1.20;;
72105;SDS011;59975;47.646;18.318;2022-07-11T02:19:27;2.80;;;1.10;;
72105;SDS011;59975;47.646;18.318;2022-07-11T02:21:53;2.97;;;1.20;;
72105;SDS011;59975;47.646;18.318;2022-07-11T02:24:19;2.57;;;1.23;;
72105;SDS011;59975;47.646;18.318;2022-07-11T02:26:46;3.80;;;1.08;;
72105;SDS011;59975;47.646;18.318;2022-07-11T02:29:12;5.00;;;1.10;;
72105;SDS011;59975;47.646;18.318;2022-07-11T02:31:39;4.73;;;1.27;;
72105;SDS011;59975;47.646;18.318;2022-07-11T02:34:04;4.57;;;1.10;;
72105;SDS011;59975;47.646;18.318;2022-07-11T02:36:30;2.35;;;1.00;;
72105;SDS011;59975;47.646;18.318;2022-07-11T02:38:56;4.90;;;1.10;;
72105;SDS011;59975;47.646;18.318;2022-07-11T02:41:22;3.78;;;1.20;;
72105;SDS011;59975;47.646;18.318;2022-07-11T02:43:48;4.60;;;1.53;;
72105;SDS011;59975;47.646;18.318;2022-07-11T02:46:14;5.65;;;1.15;;
72105;SDS011;59975;47.646;18.318;2022-07-11T02:48:40;3.37;;;1.03;;
72105;SDS011;59975;47.646;18.318;2022-07-11T02:51:06;3.25;;;1.00;;
72105;SDS011;59975;47.646;18.318;2022-07-11T02:53:31;3.58;;;1.05;;
72105;SDS011;59975;47.646;18.318;2022-07-11T02:55:57;3.80;;;1.40;;
72105;SDS011;59975;47.646;18.318;2022-07-11T02:58:23;3.55;;;1.48;;
72105;SDS011;59975;47.646;18.318;2022-07-11T03:00:49;4.28;;;1.33;;
72105;SDS011;59975;47.646;18.318;2022-07-11T03:03:16;3.10;;;1.30;;
72105;SDS011;59975;47.646;18.318;2022-07-11T03:05:41;4.80;;;1.45;;
72105;SDS011;59975;47.646;18.318;2022-07-11T03:08:08;2.30;;;1.30;;
72105;SDS011;59975;47.646;18.318;2022-07-11T03:10:35;3.92;;;1.40;;
72105;SDS011;59975;47.646;18.318;2022-07-11T03:13:01;4.20;;;1.30;;
72105;SDS011;59975;47.646;18.318;2022-07-11T03:15:27;3.15;;;1.40;;
72105;SDS011;59975;47.646;18.318;2022-07-11T03:17:53;5.87;;;1.90;;
72105;SDS011;59975;47.646;18.318;2022-07-11T03:20:19;4.78;;;1.30;;
72105;SDS011;59975;47.646;18.318;2022-07-11T03:22:45;4.70;;;1.77;;
72105;SDS011;59975;47.646;18.318;2022-07-11T03:25:10;4.35;;;1.77;;
72105;SDS011;59975;47.646;18.318;2022-07-11T03:27:36;4.78;;;1.42;;
72105;SDS011;59975;47.646;18.318;2022-07-11T03:30:02;3.40;;;1.30;;
72105;SDS011;59975;47.646;18.318;2022-07-11T03:32:28;3.22;;;1.75;;
72105;SDS011;59975;47.646;18.318;2022-07-11T03:34:53;5.17;;;1.70;;
72105;SDS011;59975;47.646;18.318;2022-07-11T03:37:39;5.75;;;2.33;;
72105;SDS011;59975;47.646;18.318;2022-07-11T03:40:07;6.03;;;1.70;;
72105;SDS011;59975;47.646;18.318;2022-07-11T03:42:35;4.80;;;1.83;;
72105;SDS011;59975;47.646;18.318;2022-07-11T03:45:01;4.45;;;1.98;;
72105;SDS011;59975;47.646;18.318;2022-07-11T03:47:27;5.75;;;1.75;;
72105;SDS011;59975;47.646;18.318;2022-07-11T03:49:52;4.40;;;1.88;;
72105;SDS011;59975;47.646;18.318;2022-07-11T03:52:18;5.03;;;1.70;;
72105;SDS011;59975;47.646;18.318;2022-07-11T03:54:43;5.47;;;1.53;;
72105;SDS011;59975;47.646;18.318;2022-07-11T03:57:10;4.57;;;1.88;;
72105;SDS011;59975;47.646;18.318;2022-07-11T03:59:36;5.88;;;1.70;;
72105;SDS011;59975;47.646;18.318;2022-07-11T04:02:01;5.27;;;2.23;;
72105;SDS011;59975;47.646;18.318;2022-07-11T04:04:28;5.55;;;1.98;;
72105;SDS011;59975;47.646;18.318;2022-07-11T04:06:54;9.50;;;2.45;;
72105;SDS011;59975;47.646;18.318;2022-07-11T04:09:20;5.53;;;2.40;;
72105;SDS011;59975;47.646;18.318;2022-07-11T04:11:45;7.00;;;2.42;;
72105;SDS011;59975;47.646;18.318;2022-07-11T04:14:12;4.33;;;2.30;;
72105;SDS011;59975;47.646;18.318;2022-07-11T04:16:38;4.85;;;2.35;;
72105;SDS011;59975;47.646;18.318;2022-07-11T04:19:03;4.23;;;2.30;;
72105;SDS011;59975;47.646;18.318;2022-07-11T04:21:29;7.17;;;1.97;;
72105;SDS011;59975;47.646;18.318;2022-07-11T04:23:54;5.00;;;1.40;;
72105;SDS011;59975;47.646;18.318;2022-07-11T04:26:22;3.60;;;1.47;;
72105;SDS011;59975;47.646;18.318;2022-07-11T04:28:47;4.18;;;1.90;;
72105;SDS011;59975;47.646;18.318;2022-07-11T04:31:13;3.47;;;1.50;;
72105;SDS011;59975;47.646;18.318;2022-07-11T04:33:39;4.32;;;1.60;;
72105;SDS011;59975;47.646;18.318;2022-07-11T04:36:04;3.70;;;1.73;;
72105;SDS011;59975;47.646;18.318;2022-07-11T04:38:31;5.97;;;1.77;;
72105;SDS011;59975;47.646;18.318;2022-07-11T04:40:57;4.00;;;1.73;;
72105;SDS011;59975;47.646;18.318;2022-07-11T04:43:22;3.78;;;1.80;;
72105;SDS011;59975;47.646;18.318;2022-07-11T04:45:48;8.33;;;1.97;;
72105;SDS011;59975;47.646;18.318;2022-07-11T04:48:15;5.65;;;2.00;;
72105;SDS011;59975;47.646;18.318;2022-07-11T04:50:43;5.60;;;1.60;;
72105;SDS011;59975;47.646;18.318;2022-07-11T04:53:11;4.63;;;1.92;;
72105;SDS011;59975;47.646;18.318;2022-07-11T04:55:37;4.53;;;1.60;;
72105;SDS011;59975;47.646;18.318;2022-07-11T04:58:06;7.53;;;2.10;;
72105;SDS011;59975;47.646;18.318;2022-07-11T05:00:32;3.63;;;1.57;;
72105;SDS011;59975;47.646;18.318;2022-07-11T05:02:57;3.83;;;2.00;;
72105;SDS011;59975;47.646;18.318;2022-07-11T05:05:23;3.57;;;1.73;;
72105;SDS011;59975;47.646;18.318;2022-07-11T05:07:50;5.03;;;1.50;;
72105;SDS011;59975;47.646;18.318;2022-07-11T05:10:16;5.07;;;1.65;;
72105;SDS011;59975;47.646;18.318;2022-07-11T05:12:42;5.33;;;1.63;;
72105;SDS011;59975;47.646;18.318;2022-07-11T05:15:08;4.35;;;1.30;;
72105;SDS011;59975;47.646;18.318;2022-07-11T05:17:34;8.13;;;1.60;;
72105;SDS011;59975;47.646;18.318;2022-07-11T05:20:01;6.18;;;2.13;;
72105;SDS011;59975;47.646;18.318;2022-07-11T05:22:26;5.37;;;1.60;;
72105;SDS011;59975;47.646;18.318;2022-07-11T05:24:52;5.90;;;1.80;;
72105;SDS011;59975;47.646;18.318;2022-07-11T05:27:18;3.97;;;1.73;;
72105;SDS011;59975;47.646;18.318;2022-07-11T05:29:44;4.55;;;1.85;;
72105;SDS011;59975;47.646;18.318;2022-07-11T05:32:11;2.17;;;1.23;;
72105;SDS011;59975;47.646;18.318;2022-07-11T05:34:39;3.97;;;1.42;;
72105;SDS011;59975;47.646;18.318;2022-07-11T05:37:04;8.13;;;2.20;;
72105;SDS011;59975;47.646;18.318;2022-07-11T05:39:30;3.78;;;1.90;;
72105;SDS011;59975;47.646;18.318;2022-07-11T05:41:56;5.73;;;1.70;;
72105;SDS011;59975;47.646;18.318;2022-07-11T05:44:22;11.57;;;2.00;;
72105;SDS011;59975;47.646;18.318;2022-07-11T05:46:47;5.35;;;2.08;;
72105;SDS011;59975;47.646;18.318;2022-07-11T05:49:13;2.97;;;1.50;;
72105;SDS011;59975;47.646;18.318;2022-07-11T05:51:38;4.72;;;1.75;;
72105;SDS011;59975;47.646;18.318;2022-07-11T05:54:05;5.03;;;1.60;;
72105;SDS011;59975;47.646;18.318;2022-07-11T05:56:31;4.63;;;1.80;;
72105;SDS011;59975;47.646;18.318;2022-07-11T05:58:57;4.60;;;1.80;;
72105;SDS011;59975;47.646;18.318;2022-07-11T06:01:27;2.47;;;1.60;;
72105;SDS011;59975;47.646;18.318;2022-07-11T06:03:53;5.18;;;2.03;;
72105;SDS011;59975;47.646;18.318;2022-07-11T06:06:18;5.60;;;1.60;;
72105;SDS011;59975;47.646;18.318;2022-07-11T06:08:44;4.88;;;2.05;;
72105;SDS011;59975;47.646;18.318;2022-07-11T06:11:11;5.63;;;1.77;;
72105;SDS011;59975;47.646;18.318;2022-07-11T06:13:40;4.40;;;1.80;;
72105;SDS011;59975;47.646;18.318;2022-07-11T06:16:07;4.35;;;1.55;;
72105;SDS011;59975;47.646;18.318;2022-07-11T06:18:34;3.75;;;1.88;;
72105;SDS011;59975;47.646;18.318;2022-07-11T06:21:01;5.32;;;1.58;;
72105;SDS011;59975;47.646;18.318;2022-07-11T06:23:27;4.07;;;1.63;;
72105;SDS011;59975;47.646;18.318;2022-07-11T06:25:53;6.73;;;2.00;;
72105;SDS011;59975;47.646;18.318;2022-07-11T06:28:19;3.88;;;1.83;;
72105;SDS011;59975;47.646;18.318;2022-07-11T06:30:45;5.40;;;1.40;;
72105;SDS011;59975;47.646;18.318;2022-07-11T06:33:11;3.73;;;1.80;;
72105;SDS011;59975;47.646;18.318;2022-07-11T06:35:36;9.13;;;1.93;;
72105;SDS011;59975;47.646;18.318;2022-07-11T06:38:03;7.95;;;1.90;;
72105;SDS011;59975;47.646;18.318;2022-07-11T06:40:30;4.50;;;1.40;;
72105;SDS011;59975;47.646;18.318;2022-07-11T06:46:17;4.25;;;1.60;;
72105;SDS011;59975;47.646;18.318;2022-07-11T06:48:43;6.07;;;1.50;;
72105;SDS011;59975;47.646;18.318;2022-07-11T06:51:11;7.93;;;1.70;;
72105;SDS011;59975;47.646;18.318;2022-07-11T06:53:36;3.47;;;1.47;;
72105;SDS011;59975;47.646;18.318;2022-07-11T06:56:03;3.90;;;1.50;;
72105;SDS011;59975;47.646;18.318;2022-07-11T06:58:29;4.95;;;2.17;;
72105;SDS011;59975;47.646;18.318;2022-07-11T07:01:07;11.63;;;1.83;;
72105;SDS011;59975;47.646;18.318;2022-07-11T07:03:34;6.55;;;1.60;;
72105;SDS011;59975;47.646;18.318;2022-07-11T07:06:00;7.10;;;1.98;;
72105;SDS011;59975;47.646;18.318;2022-07-11T07:08:28;7.38;;;1.30;;
72105;SDS011;59975;47.646;18.318;2022-07-11T07:10:55;5.85;;;1.48;;
72105;SDS011;59975;47.646;18.318;2022-07-11T07:13:22;6.10;;;1.40;;
72105;SDS011;59975;47.646;18.318;2022-07-11T07:15:54;3.80;;;1.67;;
72105;SDS011;59975;47.646;18.318;2022-07-11T07:18:20;6.30;;;1.63;;
72105;SDS011;59975;47.646;18.318;2022-07-11T07:20:46;6.83;;;1.43;;
72105;SDS011;59975;47.646;18.318;2022-07-11T07:23:14;5.07;;;1.40;;
72105;SDS011;59975;47.646;18.318;2022-07-11T07:25:40;9.02;;;1.80;;
72105;SDS011;59975;47.646;18.318;2022-07-11T07:28:08;4.05;;;1.60;;
72105;SDS011;59975;47.646;18.318;2022-07-11T07:30:33;4.28;;;1.50;;
72105;SDS011;59975;47.646;18.318;2022-07-11T07:33:00;3.97;;;1.30;;
72105;SDS011;59975;47.646;18.318;2022-07-11T07:35:29;3.63;;;1.10;;
72105;SDS011;59975;47.646;18.318;2022-07-11T07:37:55;3.50;;;1.15;;
72105;SDS011;59975;47.646;18.318;2022-07-11T07:40:23;5.88;;;1.42;;
72105;SDS011;59975;47.646;18.318;2022-07-11T07:42:49;2.77;;;1.20;;
72105;SDS011;59975;47.646;18.318;2022-07-11T07:45:14;5.72;;;1.42;;
72105;SDS011;59975;47.646;18.318;2022-07-11T07:47:41;8.07;;;1.60;;
72105;SDS011;59975;47.646;18.318;2022-07-11T07:56:51;3.15;;;1.35;;
72105;SDS011;59975;47.646;18.318;2022-07-11T08:02:40;8.40;;;1.30;;
72105;SDS011;59975;47.646;18.318;2022-07-11T08:05:05;2.92;;;1.10;;
72105;SDS011;59975;47.646;18.318;2022-07-11T08:07:32;4.40;;;1.50;;
72105;SDS011;59975;47.646;18.318;2022-07-11T08:09:58;4.65;;;1.20;;
72105;SDS011;59975;47.646;18.318;2022-07-11T08:12:23;4.40;;;1.40;;
72105;SDS011;59975;47.646;18.318;2022-07-11T08:14:50;5.00;;;1.10;;
72105;SDS011;59975;47.646;18.318;2022-07-11T08:17:16;5.57;;;1.30;;
72105;SDS011;59975;47.646;18.318;2022-07-11T08:19:42;5.85;;;1.20;;
72105;SDS011;59975;47.646;18.318;2022-07-11T08:22:08;5.20;;;1.15;;
72105;SDS011;59975;47.646;18.318;2022-07-11T08:24:34;5.90;;;1.27;;
72105;SDS011;59975;47.646;18.318;2022-07-11T08:27:01;2.63;;;0.80;;
72105;SDS011;59975;47.646;18.318;2022-07-11T08:29:28;5.50;;;1.23;;
72105;SDS011;59975;47.646;18.318;2022-07-11T08:31:54;6.32;;;1.20;;
72105;SDS011;59975;47.646;18.318;2022-07-11T08:34:19;5.47;;;1.80;;
72105;SDS011;59975;47.646;18.318;2022-07-11T08:36:45;6.73;;;1.83;;
72105;SDS011;59975;47.646;18.318;2022-07-11T08:39:11;5.07;;;1.50;;
72105;SDS011;59975;47.646;18.318;2022-07-11T08:41:38;6.07;;;1.50;;
72105;SDS011;59975;47.646;18.318;2022-07-11T08:44:08;5.40;;;1.33;;
72105;SDS011;59975;47.646;18.318;2022-07-11T08:46:34;5.32;;;1.00;;
72105;SDS011;59975;47.646;18.318;2022-07-11T08:49:02;5.28;;;1.30;;
72105;SDS011;59975;47.646;18.318;2022-07-11T08:51:28;6.40;;;1.08;;
72105;SDS011;59975;47.646;18.318;2022-07-11T08:53:55;2.67;;;1.17;;
72105;SDS011;59975;47.646;18.318;2022-07-11T08:59:42;8.35;;;1.35;;
72105;SDS011;59975;47.646;18.318;2022-07-11T09:02:11;3.45;;;1.20;;
72105;SDS011;59975;47.646;18.318;2022-07-11T09:04:38;6.73;;;1.00;;
72105;SDS011;59975;47.646;18.318;2022-07-11T09:07:05;4.88;;;1.02;;
72105;SDS011;59975;47.646;18.318;2022-07-11T09:09:31;10.95;;;2.03;;
72105;SDS011;59975;47.646;18.318;2022-07-11T09:11:58;6.38;;;1.27;;
72105;SDS011;59975;47.646;18.318;2022-07-11T09:14:25;6.07;;;1.20;;
72105;SDS011;59975;47.646;18.318;2022-07-11T09:16:52;8.32;;;1.85;;
72105;SDS011;59975;47.646;18.318;2022-07-11T09:19:29;3.85;;;1.00;;
72105;SDS011;59975;47.646;18.318;2022-07-11T09:21:56;6.07;;;1.35;;
72105;SDS011;59975;47.646;18.318;2022-07-11T09:27:53;10.33;;;1.83;;
72105;SDS011;59975;47.646;18.318;2022-07-11T09:30:31;9.13;;;1.63;;
72105;SDS011;59975;47.646;18.318;2022-07-11T09:35:37;3.37;;;1.40;;
72105;SDS011;59975;47.646;18.318;2022-07-11T09:38:07;5.38;;;1.30;;
72105;SDS011;59975;47.646;18.318;2022-07-11T09:40:34;3.10;;;1.02;;
72105;SDS011;59975;47.646;18.318;2022-07-11T09:43:01;2.33;;;1.13;;
72105;SDS011;59975;47.646;18.318;2022-07-11T09:45:28;3.38;;;1.20;;
72105;SDS011;59975;47.646;18.318;2022-07-11T09:47:56;5.00;;;1.13;;
72105;SDS011;59975;47.646;18.318;2022-07-11T09:50:24;8.15;;;1.33;;
72105;SDS011;59975;47.646;18.318;2022-07-11T09:53:13;5.05;;;1.10;;
72105;SDS011;59975;47.646;18.318;2022-07-11T09:55:42;4.03;;;1.20;;
72105;SDS011;59975;47.646;18.318;2022-07-11T09:58:15;4.13;;;1.45;;
72105;SDS011;59975;47.646;18.318;2022-07-11T10:00:41;4.17;;;1.00;;
72105;SDS011;59975;47.646;18.318;2022-07-11T10:03:09;3.92;;;1.13;;
72105;SDS011;59975;47.646;18.318;2022-07-11T10:05:36;5.00;;;1.05;;
72105;SDS011;59975;47.646;18.318;2022-07-11T10:08:03;7.17;;;1.27;;
72105;SDS011;59975;47.646;18.318;2022-07-11T10:10:30;4.30;;;1.38;;
72105;SDS011;59975;47.646;18.318;2022-07-11T10:12:58;5.57;;;0.85;;
72105;SDS011;59975;47.646;18.318;2022-07-11T10:18:33;2.95;;;0.80;;
72105;SDS011;59975;47.646;18.318;2022-07-11T10:21:06;6.18;;;1.40;;
72105;SDS011;59975;47.646;18.318;2022-07-11T10:26:53;2.47;;;0.90;;
72105;SDS011;59975;47.646;18.318;2022-07-11T10:29:38;5.93;;;1.65;;
72105;SDS011;59975;47.646;18.318;2022-07-11T10:32:08;5.32;;;1.20;;
72105;SDS011;59975;47.646;18.318;2022-07-11T10:34:35;4.13;;;1.00;;
72105;SDS011;59975;47.646;18.318;2022-07-11T10:37:02;5.25;;;1.50;;
72105;SDS011;59975;47.646;18.318;2022-07-11T10:39:32;4.45;;;1.15;;
72105;SDS011;59975;47.646;18.318;2022-07-11T10:42:01;2.70;;;0.75;;
72105;SDS011;59975;47.646;18.318;2022-07-11T10:44:28;5.65;;;0.95;;
72105;SDS011;59975;47.646;18.318;2022-07-11T10:47:38;7.03;;;1.03;;
72105;SDS011;59975;47.646;18.318;2022-07-11T10:50:22;4.68;;;0.93;;
72105;SDS011;59975;47.646;18.318;2022-07-11T10:52:56;6.50;;;2.08;;
72105;SDS011;59975;47.646;18.318;2022-07-11T11:00:48;5.05;;;1.10;;
72105;SDS011;59975;47.646;18.318;2022-07-11T11:03:15;6.13;;;1.20;;
72105;SDS011;59975;47.646;18.318;2022-07-11T11:05:51;5.33;;;1.03;;
72105;SDS011;59975;47.646;18.318;2022-07-11T11:08:40;6.78;;;1.15;;
72105;SDS011;59975;47.646;18.318;2022-07-11T11:14:26;3.03;;;1.00;;
72105;SDS011;59975;47.646;18.318;2022-07-11T11:16:52;3.80;;;1.02;;
72105;SDS011;59975;47.646;18.318;2022-07-11T11:19:48;4.65;;;1.50;;
72105;SDS011;59975;47.646;18.318;2022-07-11T11:22:25;4.25;;;1.35;;
72105;SDS011;59975;47.646;18.318;2022-07-11T11:24:52;6.25;;;1.20;;
72105;SDS011;59975;47.646;18.318;2022-07-11T11:27:23;2.60;;;0.90;;
72105;SDS011;59975;47.646;18.318;2022-07-11T11:29:52;2.17;;;0.93;;
72105;SDS011;59975;47.646;18.318;2022-07-11T11:32:20;5.15;;;1.30;;
72105;SDS011;59975;47.646;18.318;2022-07-11T11:34:47;4.53;;;0.80;;
72105;SDS011;59975;47.646;18.318;2022-07-11T11:37:14;5.70;;;1.17;;
72105;SDS011;59975;47.646;18.318;2022-07-11T11:39:42;5.07;;;1.30;;
72105;SDS011;59975;47.646;18.318;2022-07-11T11:42:09;3.33;;;1.13;;
72105;SDS011;59975;47.646;18.318;2022-07-11T11:45:01;5.38;;;0.95;;
72105;SDS011;59975;47.646;18.318;2022-07-11T11:47:30;3.13;;;1.05;;
72105;SDS011;59975;47.646;18.318;2022-07-11T11:49:56;4.03;;;1.23;;
72105;SDS011;59975;47.646;18.318;2022-07-11T11:52:22;2.00;;;0.93;;
72105;SDS011;59975;47.646;18.318;2022-07-11T11:54:56;4.88;;;1.30;;
72105;SDS011;59975;47.646;18.318;2022-07-11T11:57:23;3.53;;;1.48;;
72105;SDS011;59975;47.646;18.318;2022-07-11T11:59:50;5.75;;;1.13;;
72105;SDS011;59975;47.646;18.318;2022-07-11T12:02:26;8.27;;;1.20;;
72105;SDS011;59975;47.646;18.318;2022-07-11T12:04:54;3.57;;;1.13;;
72105;SDS011;59975;47.646;18.318;2022-07-11T12:07:21;3.78;;;1.00;;
72105;SDS011;59975;47.646;18.318;2022-07-11T12:09:50;4.05;;;1.08;;
72105;SDS011;59975;47.646;18.318;2022-07-11T12:12:21;4.80;;;1.10;;
72105;SDS011;59975;47.646;18.318;2022-07-11T12:15:30;4.90;;;1.40;;
72105;SDS011;59975;47.646;18.318;2022-07-11T12:17:57;6.03;;;1.00;;
72105;SDS011;59975;47.646;18.318;2022-07-11T12:20:46;3.50;;;1.10;;
72105;SDS011;59975;47.646;18.318;2022-07-11T12:23:12;3.92;;;0.95;;
72105;SDS011;59975;47.646;18.318;2022-07-11T12:25:41;3.55;;;0.98;;
72105;SDS011;59975;47.646;18.318;2022-07-11T12:28:07;5.88;;;1.20;;
72105;SDS011;59975;47.646;18.318;2022-07-11T12:30:35;4.13;;;1.03;;
72105;SDS011;59975;47.646;18.318;2022-07-11T12:33:03;6.93;;;0.80;;
72105;SDS011;59975;47.646;18.318;2022-07-11T12:38:51;5.53;;;1.50;;
72105;SDS011;59975;47.646;18.318;2022-07-11T12:41:17;4.57;;;1.00;;
72105;SDS011;59975;47.646;18.318;2022-07-11T12:43:44;5.85;;;1.33;;
72105;SDS011;59975;47.646;18.318;2022-07-11T12:46:32;6.13;;;1.35;;
72105;SDS011;59975;47.646;18.318;2022-07-11T12:49:02;4.63;;;1.20;;
72105;SDS011;59975;47.646;18.318;2022-07-11T12:51:33;5.82;;;1.13;;
72105;SDS011;59975;47.646;18.318;2022-07-11T12:54:03;4.95;;;1.35;;
72105;SDS011;59975;47.646;18.318;2022-07-11T12:56:29;3.70;;;1.10;;
72105;SDS011;59975;47.646;18.318;2022-07-11T12:58:56;3.35;;;1.80;;
72105;SDS011;59975;47.646;18.318;2022-07-11T13:01:23;7.17;;;1.37;;
72105;SDS011;59975;47.646;18.318;2022-07-11T13:03:50;8.23;;;1.50;;
72105;SDS011;59975;47.646;18.318;2022-07-11T13:06:16;3.70;;;1.07;;
72105;SDS011;59975;47.646;18.318;2022-07-11T13:08:43;7.47;;;1.40;;
72105;SDS011;59975;47.646;18.318;2022-07-11T13:13:53;9.10;;;1.20;;
72105;SDS011;59975;47.646;18.318;2022-07-11T13:16:20;6.43;;;1.30;;
72105;SDS011;59975;47.646;18.318;2022-07-11T13:18:45;4.47;;;1.00;;
72105;SDS011;59975;47.646;18.318;2022-07-11T13:21:12;7.40;;;1.50;;
72105;SDS011;59975;47.646;18.318;2022-07-11T13:23:38;3.70;;;1.30;;
72105;SDS011;59975;47.646;18.318;2022-07-11T13:26:05;3.65;;;1.50;;
72105;SDS011;59975;47.646;18.318;2022-07-11T13:28:32;5.60;;;1.40;;
72105;SDS011;59975;47.646;18.318;2022-07-11T13:30:59;6.17;;;1.33;;
72105;SDS011;59975;47.646;18.318;2022-07-11T13:33:25;3.15;;;0.98;;
72105;SDS011;59975;47.646;18.318;2022-07-11T13:35:51;3.78;;;1.13;;
72105;SDS011;59975;47.646;18.318;2022-07-11T13:38:18;4.25;;;1.20;;
72105;SDS011;59975;47.646;18.318;2022-07-11T13:40:44;6.57;;;1.40;;
72105;SDS011;59975;47.646;18.318;2022-07-11T13:43:10;7.47;;;0.97;;
72105;SDS011;59975;47.646;18.318;2022-07-11T13:45:37;4.63;;;1.23;;
72105;SDS011;59975;47.646;18.318;2022-07-11T13:48:04;4.00;;;1.48;;
72105;SDS011;59975;47.646;18.318;2022-07-11T13:50:30;4.10;;;1.10;;
72105;SDS011;59975;47.646;18.318;2022-07-11T13:52:56;6.03;;;1.42;;
72105;SDS011;59975;47.646;18.318;2022-07-11T13:55:22;2.77;;;1.17;;
72105;SDS011;59975;47.646;18.318;2022-07-11T13:57:49;3.40;;;1.10;;
72105;SDS011;59975;47.646;18.318;2022-07-11T14:00:17;3.83;;;1.50;;
72105;SDS011;59975;47.646;18.318;2022-07-11T14:02:43;4.90;;;1.20;;
72105;SDS011;59975;47.646;18.318;2022-07-11T14:05:09;3.30;;;1.30;;
72105;SDS011;59975;47.646;18.318;2022-07-11T14:07:34;4.47;;;1.10;;
72105;SDS011;59975;47.646;18.318;2022-07-11T14:10:00;9.00;;;1.27;;
72105;SDS011;59975;47.646;18.318;2022-07-11T14:12:26;4.00;;;1.13;;
72105;SDS011;59975;47.646;18.318;2022-07-11T14:14:53;4.78;;;1.67;;
72105;SDS011;59975;47.646;18.318;2022-07-11T14:17:20;6.43;;;1.05;;
72105;SDS011;59975;47.646;18.318;2022-07-11T14:19:46;5.10;;;1.05;;
72105;SDS011;59975;47.646;18.318;2022-07-11T14:22:11;2.73;;;1.20;;
72105;SDS011;59975;47.646;18.318;2022-07-11T14:24:37;3.53;;;1.08;;
72105;SDS011;59975;47.646;18.318;2022-07-11T14:27:03;5.00;;;1.20;;
72105;SDS011;59975;47.646;18.318;2022-07-11T14:29:29;6.85;;;1.77;;
72105;SDS011;59975;47.646;18.318;2022-07-11T14:31:56;5.67;;;1.47;;
72105;SDS011;59975;47.646;18.318;2022-07-11T14:34:22;5.70;;;1.25;;
72105;SDS011;59975;47.646;18.318;2022-07-11T14:36:48;4.35;;;1.27;;
72105;SDS011;59975;47.646;18.318;2022-07-11T14:39:14;6.13;;;1.40;;
72105;SDS011;59975;47.646;18.318;2022-07-11T14:41:40;3.63;;;1.20;;
72105;SDS011;59975;47.646;18.318;2022-07-11T14:44:08;10.43;;;1.48;;
72105;SDS011;59975;47.646;18.318;2022-07-11T14:46:35;3.47;;;1.23;;
72105;SDS011;59975;47.646;18.318;2022-07-11T14:49:00;3.25;;;1.17;;
72105;SDS011;59975;47.646;18.318;2022-07-11T14:51:26;4.03;;;0.83;;
72105;SDS011;59975;47.646;18.318;2022-07-11T14:53:56;6.38;;;1.20;;
72105;SDS011;59975;47.646;18.318;2022-07-11T14:56:22;6.43;;;1.33;;
72105;SDS011;59975;47.646;18.318;2022-07-11T14:58:48;3.70;;;1.00;;
72105;SDS011;59975;47.646;18.318;2022-07-11T15:01:14;4.63;;;1.10;;
72105;SDS011;59975;47.646;18.318;2022-07-11T15:03:39;3.13;;;0.88;;
72105;SDS011;59975;47.646;18.318;2022-07-11T15:06:10;3.70;;;0.85;;
72105;SDS011;59975;47.646;18.318;2022-07-11T15:08:37;2.40;;;0.73;;
72105;SDS011;59975;47.646;18.318;2022-07-11T15:11:23;5.70;;;1.02;;
72105;SDS011;59975;47.646;18.318;2022-07-11T15:14:09;2.97;;;1.10;;
72105;SDS011;59975;47.646;18.318;2022-07-11T15:16:37;4.28;;;0.90;;
72105;SDS011;59975;47.646;18.318;2022-07-11T15:19:04;5.82;;;0.93;;
72105;SDS011;59975;47.646;18.318;2022-07-11T15:21:31;6.90;;;1.00;;
72105;SDS011;59975;47.646;18.318;2022-07-11T15:23:57;2.63;;;1.30;;
72105;SDS011;59975;47.646;18.318;2022-07-11T15:26:24;8.00;;;1.10;;
72105;SDS011;59975;47.646;18.318;2022-07-11T15:28:50;5.63;;;1.77;;
72105;SDS011;59975;47.646;18.318;2022-07-11T15:31:16;3.92;;;1.13;;